Time;durP1;ratioP1;P1;durP2;ratioP2;P2;SDS_P1;SDS_P2;PMS_P1;PMS_P2;Temp;Humidity;BMP_temperature;BMP_pressure;BME280_temperature;BME280_humidity;BME280_pressure;Samples;Min_cycle;Max_cycle;Signal;HPM_P1;HPM_P2
2021/04/28 00:01:48;;;;;;;10.18;3.83;;;4.80;94.60;;;;;;5023843;28;20045;-65
2021/04/28 00:04:13;;;;;;;6.47;4.20;;;4.80;94.60;;;;;;5028182;28;20049;-65
2021/04/28 00:06:40;;;;;;;7.78;4.00;;;4.80;94.80;;;;;;5026342;28;20475;-65
2021/04/28 00:09:07;;;;;;;6.65;3.65;;;4.80;94.80;;;;;;5026731;28;20061;-65
2021/04/28 00:11:34;;;;;;;7.60;4.20;;;4.80;94.70;;;;;;5028311;28;20095;-65
2021/04/28 00:14:00;;;;;;;7.03;3.97;;;4.70;94.80;;;;;;5019203;28;20496;-65
2021/04/28 00:16:26;;;;;;;6.88;4.20;;;4.70;94.70;;;;;;5028748;28;20044;-65
2021/04/28 00:18:52;;;;;;;5.75;3.63;;;4.70;94.80;;;;;;5028420;28;20114;-65
2021/04/28 00:21:19;;;;;;;7.50;4.00;;;4.70;94.90;;;;;;5025889;28;20496;-65
2021/04/28 00:23:45;;;;;;;4.97;3.92;;;4.60;94.90;;;;;;5026774;28;20111;-65
2021/04/28 00:26:13;;;;;;;13.57;4.07;;;4.60;94.70;;;;;;5023358;28;20029;-65
2021/04/28 00:28:39;;;;;;;10.15;3.70;;;4.60;94.60;;;;;;5028768;28;20095;-65
2021/04/28 00:31:05;;;;;;;9.68;3.70;;;4.60;94.60;;;;;;5028693;28;20120;-65
2021/04/28 00:33:31;;;;;;;8.35;3.42;;;4.60;94.40;;;;;;5032312;28;20140;-65
2021/04/28 00:36:00;;;;;;;4.88;3.25;;;4.50;94.30;;;;;;5032834;28;20050;-65
2021/04/28 00:38:26;;;;;;;11.55;4.03;;;4.50;94.30;;;;;;5032312;28;20500;-65
2021/04/28 00:40:53;;;;;;;7.85;3.80;;;4.60;94.20;;;;;;5032623;28;20041;-65
2021/04/28 00:43:19;;;;;;;4.35;3.00;;;4.60;94.10;;;;;;5030492;28;20578;-65
2021/04/28 00:45:45;;;;;;;8.07;3.95;;;4.50;94.00;;;;;;5029609;28;20156;-65
2021/04/28 00:48:12;;;;;;;5.20;3.58;;;4.50;94.00;;;;;;5032272;28;20514;-65
2021/04/28 00:50:43;;;;;;;10.07;3.75;;;4.50;94.00;;;;;;5031087;28;20064;-65
2021/04/28 00:53:12;;;;;;;7.50;3.70;;;4.40;94.00;;;;;;5027730;28;20471;-65
2021/04/28 00:55:39;;;;;;;9.43;4.18;;;4.40;94.10;;;;;;5030220;28;20057;-65
2021/04/28 00:58:05;;;;;;;6.82;3.83;;;4.30;93.90;;;;;;5031888;28;20170;-65
2021/04/28 01:00:32;;;;;;;5.97;3.42;;;4.30;93.90;;;;;;5032251;28;20041;-65
2021/04/28 01:02:58;;;;;;;6.55;3.47;;;4.30;94.00;;;;;;5031952;28;20536;-65
2021/04/28 01:05:24;;;;;;;9.60;3.45;;;4.30;93.80;;;;;;5028476;28;20459;-65
2021/04/28 01:07:50;;;;;;;4.25;3.03;;;4.30;93.80;;;;;;5031915;28;20041;-65
2021/04/28 01:10:23;;;;;;;5.82;3.30;;;4.30;93.70;;;;;;5027615;28;20041;-65
2021/04/28 01:12:49;;;;;;;6.63;3.30;;;4.20;93.60;;;;;;5031545;28;20168;-65
2021/04/28 01:15:19;;;;;;;10.57;3.35;;;4.20;93.70;;;;;;5030415;28;20046;-65
2021/04/28 01:17:44;;;;;;;5.40;3.08;;;4.20;93.60;;;;;;5032372;28;20051;-65
2021/04/28 01:20:13;;;;;;;10.60;3.97;;;4.10;93.40;;;;;;5030782;28;20041;-65
2021/04/28 01:22:46;;;;;;;8.55;3.13;;;4.10;93.40;;;;;;5027586;28;21055;-65
2021/04/28 01:25:18;;;;;;;4.07;2.63;;;4.00;93.20;;;;;;5027581;28;20029;-65
2021/04/28 01:28:05;;;;;;;4.55;3.30;;;4.00;93.20;;;;;;5030958;28;20402;-65
2021/04/28 01:30:41;;;;;;;7.03;3.45;;;4.00;93.10;;;;;;5031359;28;20091;-65
2021/04/28 01:33:12;;;;;;;5.82;3.25;;;4.00;93.00;;;;;;5029400;28;20033;-65
2021/04/28 01:35:38;;;;;;;7.97;2.97;;;4.00;92.90;;;;;;5028167;28;20108;-65
2021/04/28 01:38:05;;;;;;;8.68;3.42;;;4.00;92.80;;;;;;5030480;28;20053;-65
2021/04/28 01:40:33;;;;;;;7.25;2.72;;;4.00;92.70;;;;;;5030134;28;20036;-65
2021/04/28 01:43:00;;;;;;;5.40;2.67;;;3.90;92.60;;;;;;5029048;28;20430;-65
2021/04/28 01:45:26;;;;;;;4.70;3.42;;;3.90;92.60;;;;;;5031578;28;20400;-65
2021/04/28 01:47:52;;;;;;;5.10;3.20;;;3.90;92.70;;;;;;5029729;28;20041;-65
2021/04/28 01:50:20;;;;;;;4.38;2.97;;;3.80;92.70;;;;;;5029842;28;20033;-65
2021/04/28 01:52:46;;;;;;;9.93;2.92;;;3.80;92.60;;;;;;5030238;28;20091;-65
2021/04/28 01:55:13;;;;;;;6.30;3.08;;;3.80;92.60;;;;;;5028640;28;20033;-65
2021/04/28 01:57:40;;;;;;;5.40;2.90;;;3.70;92.70;;;;;;5028648;28;20037;-65
2021/04/28 02:00:08;;;;;;;3.83;2.65;;;3.70;92.60;;;;;;5029692;28;20088;-65
2021/04/28 02:02:35;;;;;;;5.20;2.72;;;3.70;92.60;;;;;;5030340;28;20065;-65
2021/04/28 02:05:07;;;;;;;3.75;2.83;;;3.70;92.50;;;;;;5028624;28;20037;-65
2021/04/28 02:07:33;;;;;;;3.92;2.80;;;3.60;92.50;;;;;;5027608;28;20041;-65
2021/04/28 02:09:59;;;;;;;8.27;3.30;;;3.60;92.50;;;;;;5022814;28;20060;-65
2021/04/28 02:12:24;;;;;;;4.93;3.50;;;3.60;92.50;;;;;;5030682;28;20102;-65
2021/04/28 02:14:52;;;;;;;5.40;3.28;;;3.50;92.60;;;;;;5028117;28;20037;-65
2021/04/28 02:17:19;;;;;;;5.35;3.60;;;3.50;92.60;;;;;;5028226;28;20052;-65
2021/04/28 02:19:45;;;;;;;5.60;2.95;;;3.50;92.50;;;;;;5029260;28;20041;-65
2021/04/28 02:22:11;;;;;;;8.85;3.13;;;3.50;92.40;;;;;;5027073;28;20452;-65
2021/04/28 02:24:40;;;;;;;6.57;3.28;;;3.50;92.40;;;;;;5028448;28;20037;-65
2021/04/28 02:27:05;;;;;;;4.95;2.60;;;3.50;92.40;;;;;;5026689;28;20064;-65
2021/04/28 02:29:32;;;;;;;9.32;2.80;;;3.50;92.30;;;;;;5028846;28;20487;-65
2021/04/28 02:31:58;;;;;;;8.05;4.13;;;3.50;92.30;;;;;;5024793;28;20396;-65
2021/04/28 02:34:24;;;;;;;6.43;3.47;;;3.40;92.30;;;;;;5028907;28;20038;-65
2021/04/28 02:36:53;;;;;;;4.18;2.22;;;3.40;92.30;;;;;;5028973;28;20104;-65
2021/04/28 02:39:42;;;;;;;6.78;2.92;;;3.40;92.30;;;;;;5027710;28;20544;-65
2021/04/28 02:42:11;;;;;;;3.13;2.40;;;3.40;92.30;;;;;;5026771;28;20044;-65
2021/04/28 02:44:37;;;;;;;6.53;3.30;;;3.40;92.30;;;;;;5026182;28;20391;-65
2021/04/28 02:47:05;;;;;;;5.93;2.38;;;3.40;92.40;;;;;;5029717;28;20102;-65
2021/04/28 02:49:31;;;;;;;7.03;3.17;;;3.30;92.40;;;;;;5028956;28;20507;-65
2021/04/28 02:51:58;;;;;;;7.18;2.60;;;3.40;92.40;;;;;;5025043;28;20545;-65
2021/04/28 02:54:24;;;;;;;4.45;2.15;;;3.40;92.30;;;;;;5028920;28;20037;-65
2021/04/28 02:56:51;;;;;;;7.70;3.08;;;3.40;92.30;;;;;;5028970;28;21027;-65
2021/04/28 02:59:22;;;;;;;4.05;2.95;;;3.30;92.30;;;;;;5025467;28;20121;-65
2021/04/28 03:01:49;;;;;;;4.65;2.78;;;3.30;92.30;;;;;;5028925;28;20130;-65
2021/04/28 03:04:18;;;;;;;4.05;2.65;;;3.30;92.30;;;;;;5029214;28;20091;-65
2021/04/28 03:06:44;;;;;;;3.53;2.35;;;3.30;92.30;;;;;;5027887;28;20049;-65
2021/04/28 03:09:13;;;;;;;5.65;2.78;;;3.30;92.40;;;;;;5029243;28;20037;-65
2021/04/28 03:11:40;;;;;;;3.83;2.00;;;3.30;92.20;;;;;;5027296;28;20033;-65
2021/04/28 03:14:06;;;;;;;5.53;2.20;;;3.30;92.10;;;;;;5029018;28;20119;-65
2021/04/28 03:16:32;;;;;;;6.07;2.22;;;3.30;92.10;;;;;;5028695;28;20044;-65
2021/04/28 03:19:05;;;;;;;5.43;1.65;;;3.30;92.20;;;;;;5027764;28;20053;-65
2021/04/28 03:21:34;;;;;;;4.03;2.15;;;3.20;92.20;;;;;;5028103;28;20114;-65
2021/04/28 03:24:01;;;;;;;13.85;2.85;;;3.20;92.10;;;;;;5029077;28;20469;-65
2021/04/28 03:26:28;;;;;;;9.48;2.05;;;3.20;92.00;;;;;;5028606;28;20492;-65
2021/04/28 03:28:53;;;;;;;4.47;2.67;;;3.20;92.10;;;;;;5027369;28;20472;-65
2021/04/28 03:31:19;;;;;;;6.88;2.25;;;3.20;92.20;;;;;;5028692;28;20086;-65
2021/04/28 03:33:45;;;;;;;2.85;2.22;;;3.30;92.20;;;;;;5044381;28;20163;-65
2021/04/28 03:36:11;;;;;;;4.15;2.30;;;3.20;92.10;;;;;;5025983;28;20128;-65
2021/04/28 03:38:37;;;;;;;3.75;2.10;;;3.70;92.20;;;;;;5027455;28;20052;-65
2021/04/28 03:41:03;;;;;;;2.83;2.20;;;3.30;92.00;;;;;;5025744;28;20127;-65
2021/04/28 03:43:29;;;;;;;6.13;2.15;;;3.20;91.90;;;;;;5026916;28;20041;-65
2021/04/28 03:45:54;;;;;;;5.50;2.03;;;3.30;91.90;;;;;;5025207;28;20030;-65
2021/04/28 03:48:20;;;;;;;7.47;2.13;;;3.20;91.80;;;;;;5028762;28;20128;-65
2021/04/28 03:50:46;;;;;;;2.60;2.05;;;3.30;91.80;;;;;;5028343;28;20074;-65
2021/04/28 03:53:12;;;;;;;5.43;2.15;;;3.30;91.70;;;;;;5028103;28;20603;-65
2021/04/28 03:55:37;;;;;;;5.65;2.95;;;3.30;91.80;;;;;;5028436;28;20057;-65
2021/04/28 03:58:06;;;;;;;5.30;1.80;;;3.30;91.70;;;;;;5028105;28;20511;-65
2021/04/28 04:00:32;;;;;;;7.22;2.00;;;3.30;91.50;;;;;;5027378;28;20041;-65
2021/04/28 04:02:58;;;;;;;9.02;2.30;;;3.30;91.50;;;;;;5027605;28;20046;-65
2021/04/28 04:05:24;;;;;;;4.20;2.00;;;3.20;91.50;;;;;;5028814;28;20047;-65
2021/04/28 04:07:50;;;;;;;3.10;1.70;;;3.20;91.50;;;;;;5032161;28;20495;-65
2021/04/28 04:10:16;;;;;;;4.85;2.83;;;3.20;91.50;;;;;;5032074;28;20041;-65
2021/04/28 04:12:42;;;;;;;5.30;1.95;;;3.10;91.70;;;;;;5030030;28;20499;-65
2021/04/28 04:15:08;;;;;;;3.08;1.60;;;3.10;91.80;;;;;;5031927;28;20061;-65
2021/04/28 04:17:34;;;;;;;2.78;2.20;;;3.10;91.80;;;;;;5032182;28;20103;-65
2021/04/28 04:20:00;;;;;;;2.40;1.80;;;3.10;91.90;;;;;;5032274;28;20041;-65
2021/04/28 04:22:26;;;;;;;3.88;1.73;;;3.10;91.90;;;;;;5032759;28;20051;-65
2021/04/28 04:24:52;;;;;;;2.95;1.27;;;3.10;92.00;;;;;;5031104;28;20037;-65
2021/04/28 04:27:18;;;;;;;2.92;1.98;;;3.10;92.00;;;;;;5030628;28;20037;-65
2021/04/28 04:29:44;;;;;;;1.95;1.40;;;3.10;92.00;;;;;;5030605;28;20042;-65
2021/04/28 04:32:10;;;;;;;5.05;1.75;;;3.20;91.90;;;;;;5031939;28;20057;-65
2021/04/28 04:34:36;;;;;;;4.28;1.83;;;3.30;91.80;;;;;;5030659;28;20072;-65
2021/04/28 04:37:02;;;;;;;2.75;1.33;;;3.40;91.70;;;;;;5031233;28;20061;-65
2021/04/28 04:39:28;;;;;;;6.93;2.42;;;3.40;91.60;;;;;;5030621;28;20038;-65
2021/04/28 04:41:53;;;;;;;4.72;2.05;;;3.50;91.60;;;;;;5031991;28;20044;-65
2021/04/28 04:44:19;;;;;;;4.55;1.90;;;3.60;91.50;;;;;;5029938;28;20036;-65
2021/04/28 04:46:45;;;;;;;3.10;2.15;;;3.70;91.30;;;;;;5029062;28;20064;-65
2021/04/28 04:49:11;;;;;;;3.25;2.00;;;3.70;91.20;;;;;;5030948;28;20069;-65
2021/04/28 04:51:36;;;;;;;3.67;1.95;;;3.80;91.00;;;;;;5031965;28;20511;-65
2021/04/28 04:54:03;;;;;;;6.03;1.83;;;3.80;90.90;;;;;;5027624;28;20484;-65
2021/04/28 04:56:28;;;;;;;5.43;1.90;;;3.90;90.90;;;;;;5024815;28;20084;-65
2021/04/28 04:58:54;;;;;;;3.80;1.67;;;4.00;91.00;;;;;;5026073;28;20068;-65
2021/04/28 05:01:21;;;;;;;2.95;1.63;;;4.70;90.80;;;;;;5028111;28;20060;-65
2021/04/28 05:03:47;;;;;;;3.13;1.63;;;5.40;89.20;;;;;;5026339;28;20395;-65
2021/04/28 05:06:12;;;;;;;7.75;1.70;;;6.30;86.10;;;;;;5027031;28;20045;-65
2021/04/28 05:08:38;;;;;;;2.63;1.60;;;7.20;83.30;;;;;;5025202;28;20073;-65
2021/04/28 05:11:04;;;;;;;2.25;1.40;;;8.20;80.30;;;;;;5023989;28;20033;-65
2021/04/28 05:13:30;;;;;;;6.45;1.88;;;9.00;75.40;;;;;;5026040;28;20121;-65
2021/04/28 05:15:56;;;;;;;6.82;1.58;;;9.90;72.30;;;;;;5027555;28;20488;-65
2021/04/28 05:18:21;;;;;;;3.58;1.33;;;10.60;67.60;;;;;;5028515;28;20112;-65
2021/04/28 05:21:07;;;;;;;2.78;1.77;;;11.10;63.80;;;;;;5025870;28;20053;-65
2021/04/28 05:23:33;;;;;;;5.65;1.75;;;11.80;60.70;;;;;;5029580;28;20037;-66
2021/04/28 05:25:58;;;;;;;4.30;1.40;;;12.40;58.20;;;;;;5028942;28;20047;-66
2021/04/28 05:28:24;;;;;;;5.53;1.67;;;12.70;55.60;;;;;;5030804;28;20041;-66
2021/04/28 05:30:50;;;;;;;3.03;1.85;;;13.10;54.40;;;;;;5029401;28;20142;-66
2021/04/28 05:33:16;;;;;;;3.67;1.98;;;13.80;53.10;;;;;;5029066;28;20039;-66
2021/04/28 05:35:41;;;;;;;6.25;1.65;;;14.30;51.00;;;;;;5029996;28;20472;-66
2021/04/28 05:38:07;;;;;;;5.97;1.73;;;14.80;49.70;;;;;;5030307;28;20427;-66
2021/04/28 05:40:33;;;;;;;3.47;1.63;;;15.40;47.80;;;;;;5029476;28;20046;-66
2021/04/28 05:42:59;;;;;;;3.15;1.42;;;15.80;46.50;;;;;;5026903;28;20050;-66
2021/04/28 05:45:25;;;;;;;5.43;1.80;;;16.20;45.40;;;;;;5029465;28;20041;-66
2021/04/28 05:47:51;;;;;;;4.65;2.03;;;16.60;44.20;;;;;;5030095;28;20041;-66
2021/04/28 05:50:17;;;;;;;6.95;1.98;;;16.80;42.40;;;;;;5027469;28;20042;-66
2021/04/28 05:52:44;;;;;;;2.22;1.33;;;17.20;41.90;;;;;;5028327;28;20034;-66
2021/04/28 05:55:10;;;;;;;6.45;1.90;;;17.50;40.80;;;;;;5029093;28;20065;-66
2021/04/28 05:57:37;;;;;;;2.85;1.90;;;17.80;40.40;;;;;;5029173;28;20041;-66
2021/04/28 06:00:12;;;;;;;2.40;1.65;;;18.10;40.30;;;;;;5028709;28;20116;-66
2021/04/28 06:02:39;;;;;;;3.67;2.08;;;18.20;39.20;;;;;;5027790;28;20065;-66
2021/04/28 06:05:06;;;;;;;4.43;1.63;;;18.10;38.70;;;;;;5025362;28;20037;-66
2021/04/28 06:07:32;;;;;;;2.75;1.60;;;18.40;38.30;;;;;;5027508;28;20510;-66
2021/04/28 06:09:58;;;;;;;5.45;2.28;;;18.20;37.20;;;;;;5028614;28;20049;-66
2021/04/28 06:12:23;;;;;;;8.45;2.55;;;17.90;38.30;;;;;;5029435;28;20057;-67
2021/04/28 06:14:49;;;;;;;4.15;1.98;;;16.90;40.60;;;;;;5028519;28;20072;-66
2021/04/28 06:17:15;;;;;;;2.58;1.80;;;16.10;41.70;;;;;;5027607;28;20056;-67
2021/04/28 06:19:41;;;;;;;4.68;1.98;;;15.40;43.10;;;;;;5024807;28;20081;-67
2021/04/28 06:22:07;;;;;;;4.65;2.17;;;14.10;46.20;;;;;;5027638;28;20037;-67
2021/04/28 06:24:33;;;;;;;2.95;2.10;;;13.90;48.10;;;;;;5025455;28;20033;-67
2021/04/28 06:26:58;;;;;;;3.80;2.13;;;13.20;47.90;;;;;;5028969;28;20048;-67
2021/04/28 06:29:24;;;;;;;5.95;2.08;;;13.00;49.70;;;;;;5025966;28;20037;-67
2021/04/28 06:31:50;;;;;;;4.07;2.22;;;12.90;48.70;;;;;;5028207;28;20944;-66
2021/04/28 06:34:16;;;;;;;4.18;2.17;;;12.70;48.90;;;;;;5026394;28;20041;-67
2021/04/28 06:36:41;;;;;;;6.00;2.13;;;12.80;49.30;;;;;;5028234;28;20037;-67
2021/04/28 06:39:07;;;;;;;4.97;2.00;;;12.80;49.50;;;;;;5028415;28;20068;-67
2021/04/28 06:41:33;;;;;;;8.60;2.65;;;12.80;49.40;;;;;;5026005;28;20500;-67
2021/04/28 06:43:59;;;;;;;7.47;2.63;;;12.90;49.60;;;;;;5026175;28;20510;-66
2021/04/28 06:46:24;;;;;;;4.38;2.50;;;13.00;49.50;;;;;;5026393;28;20045;-66
2021/04/28 06:48:50;;;;;;;5.93;2.28;;;12.80;49.90;;;;;;5022209;28;20042;-66
2021/04/28 06:51:16;;;;;;;4.80;2.17;;;12.60;50.20;;;;;;5026913;28;20125;-66
2021/04/28 06:53:42;;;;;;;6.95;2.17;;;12.70;49.90;;;;;;5025844;28;20037;-67
2021/04/28 06:56:08;;;;;;;5.18;2.80;;;12.80;49.00;;;;;;5022404;28;20615;-66
2021/04/28 06:58:34;;;;;;;8.85;2.63;;;12.80;49.00;;;;;;5025770;28;20040;-66
2021/04/28 07:00:59;;;;;;;6.05;2.10;;;12.70;49.40;;;;;;5027512;28;20052;-66
2021/04/28 07:03:26;;;;;;;3.53;2.35;;;12.60;50.60;;;;;;5025955;28;20042;-67
2021/04/28 07:05:52;;;;;;;2.30;1.85;;;12.60;49.90;;;;;;5026904;28;20037;-67
2021/04/28 07:08:18;;;;;;;5.07;2.78;;;12.60;50.50;;;;;;5024179;28;20056;-67
2021/04/28 07:10:43;;;;;;;4.28;2.20;;;12.70;50.80;;;;;;5024418;28;20488;-66
2021/04/28 07:13:09;;;;;;;4.68;2.05;;;12.70;50.50;;;;;;5027512;28;20124;-68
2021/04/28 07:15:35;;;;;;;6.55;2.50;;;12.90;50.00;;;;;;5026720;28;20036;-68
2021/04/28 07:18:02;;;;;;;5.18;2.40;;;12.80;50.90;;;;;;5023968;28;20093;-68
2021/04/28 07:20:28;;;;;;;7.05;2.90;;;12.80;51.20;;;;;;5026870;28;20029;-68
2021/04/28 07:22:55;;;;;;;7.03;2.40;;;12.70;51.00;;;;;;5026763;28;20051;-68
2021/04/28 07:25:20;;;;;;;5.32;2.25;;;12.80;50.60;;;;;;5026912;28;20095;-68
2021/04/28 07:27:48;;;;;;;6.38;3.03;;;12.80;50.20;;;;;;5026479;28;20045;-68
2021/04/28 07:30:17;;;;;;;4.68;2.40;;;12.70;50.40;;;;;;5028254;28;20044;-68
2021/04/28 07:32:43;;;;;;;8.50;3.15;;;12.90;50.70;;;;;;5025734;28;20045;-68
2021/04/28 07:35:10;;;;;;;3.33;2.53;;;12.80;50.70;;;;;;5028103;28;20143;-68
2021/04/28 07:37:36;;;;;;;7.07;2.35;;;12.90;51.00;;;;;;5024645;28;20047;-68
2021/04/28 07:40:05;;;;;;;6.03;2.38;;;12.90;50.40;;;;;;5026867;28;20112;-68
2021/04/28 07:42:30;;;;;;;8.93;3.25;;;13.00;52.50;;;;;;5027007;28;20041;-67
2021/04/28 07:44:56;;;;;;;10.23;2.50;;;13.10;52.30;;;;;;5024675;28;20039;-68
2021/04/28 07:47:22;;;;;;;7.75;3.47;;;13.00;51.20;;;;;;5027576;28;20041;-67
2021/04/28 07:49:47;;;;;;;5.40;3.00;;;13.00;53.00;;;;;;5026368;28;20045;-68
2021/04/28 07:52:13;;;;;;;6.53;2.50;;;13.10;53.30;;;;;;5027911;28;20566;-68
2021/04/28 07:54:39;;;;;;;9.70;2.75;;;13.20;51.30;;;;;;5027978;28;20096;-68
2021/04/28 07:57:05;;;;;;;10.07;2.92;;;13.30;52.60;;;;;;5023927;28;20041;-68
2021/04/28 07:59:31;;;;;;;6.50;2.65;;;13.30;51.70;;;;;;5025734;28;20037;-68
2021/04/28 08:01:57;;;;;;;3.85;2.60;;;13.40;52.10;;;;;;5024633;28;20048;-68
2021/04/28 08:04:24;;;;;;;11.68;3.95;;;13.40;52.10;;;;;;5026658;28;20038;-67
2021/04/28 08:06:49;;;;;;;5.32;2.42;;;13.50;50.30;;;;;;5024641;28;20037;-68
2021/04/28 08:09:16;;;;;;;5.85;2.78;;;13.40;50.80;;;;;;5026792;28;20092;-68
2021/04/28 08:11:42;;;;;;;3.88;2.50;;;13.40;49.70;;;;;;5025479;28;20742;-68
2021/04/28 08:14:08;;;;;;;3.53;2.80;;;13.20;50.40;;;;;;5024271;28;20490;-68
2021/04/28 08:16:35;;;;;;;6.93;3.22;;;13.30;51.20;;;;;;5024456;28;20038;-68
2021/04/28 08:19:01;;;;;;;7.93;3.13;;;13.30;51.60;;;;;;5023679;28;20042;-68
2021/04/28 08:21:27;;;;;;;5.80;2.50;;;13.40;51.40;;;;;;5025694;28;20033;-68
2021/04/28 08:23:53;;;;;;;6.70;3.30;;;13.60;51.10;;;;;;5023973;28;20033;-68
2021/04/28 08:26:19;;;;;;;4.47;2.85;;;13.60;49.80;;;;;;5025243;28;20463;-68
2021/04/28 08:28:47;;;;;;;6.82;3.15;;;13.70;52.10;;;;;;5029323;28;20033;-68
2021/04/28 08:31:15;;;;;;;5.60;3.17;;;13.70;50.60;;;;;;5027103;28;20395;-68
2021/04/28 08:33:42;;;;;;;7.53;3.40;;;13.70;49.80;;;;;;5024469;28;20124;-68
2021/04/28 08:36:09;;;;;;;5.28;2.92;;;13.70;49.70;;;;;;5026097;28;20101;-68
2021/04/28 08:38:36;;;;;;;5.10;3.28;;;13.70;52.50;;;;;;5026215;28;20052;-67
2021/04/28 08:41:05;;;;;;;7.18;3.40;;;13.90;51.10;;;;;;5025031;28;20545;-68
2021/04/28 08:43:32;;;;;;;6.43;3.20;;;14.00;50.50;;;;;;5025522;28;20156;-68
2021/04/28 08:46:00;;;;;;;7.43;4.47;;;14.00;51.10;;;;;;5024311;28;20451;-68
2021/04/28 08:48:25;;;;;;;7.72;2.92;;;14.00;48.80;;;;;;5024444;28;21127;-68
2021/04/28 08:50:51;;;;;;;4.97;3.13;;;14.10;49.00;;;;;;5026015;28;20148;-68
2021/04/28 08:53:18;;;;;;;5.13;3.60;;;14.20;49.00;;;;;;5028297;28;21310;-68
2021/04/28 08:55:45;;;;;;;4.75;3.38;;;14.40;49.60;;;;;;5029745;28;20042;-68
2021/04/28 08:58:12;;;;;;;4.60;3.25;;;14.70;51.40;;;;;;5032654;28;20037;-68
2021/04/28 09:00:38;;;;;;;6.65;3.95;;;14.80;49.70;;;;;;5031295;28;20041;-68
2021/04/28 09:03:04;;;;;;;8.52;3.85;;;14.60;47.30;;;;;;5031472;28;20128;-68
2021/04/28 09:05:33;;;;;;;6.53;3.67;;;14.80;50.00;;;;;;5029358;28;20042;-68
2021/04/28 09:07:59;;;;;;;7.75;4.03;;;15.00;49.70;;;;;;5022227;28;20088;-68
2021/04/28 09:10:29;;;;;;;6.05;3.42;;;15.00;48.30;;;;;;5020628;28;20030;-68
2021/04/28 09:12:57;;;;;;;4.38;3.83;;;15.10;46.30;;;;;;5037867;28;20531;-68
2021/04/28 09:15:47;;;;;;;4.68;3.25;;;15.20;46.70;;;;;;5025600;28;20495;-68
2021/04/28 09:18:17;;;;;;;7.82;3.13;;;15.10;44.20;;;;;;5028339;28;20120;-68
2021/04/28 09:20:51;;;;;;;4.60;3.42;;;15.00;43.00;;;;;;5028855;28;20045;-68
2021/04/28 09:23:29;;;;;;;7.78;3.35;;;15.00;45.60;;;;;;5030170;28;20041;-68
2021/04/28 09:25:55;;;;;;;6.65;3.05;;;15.10;45.70;;;;;;5024205;28;20029;-68
2021/04/28 09:28:24;;;;;;;5.40;3.33;;;15.30;46.50;;;;;;5023227;28;20080;-68
2021/04/28 09:30:55;;;;;;;4.65;3.40;;;15.30;46.30;;;;;;5022340;28;20037;-68
2021/04/28 09:33:20;;;;;;;9.57;3.70;;;15.10;45.20;;;;;;5021613;28;20048;-68
2021/04/28 09:35:58;;;;;;;5.70;3.20;;;15.00;46.20;;;;;;5024041;28;20038;-68
2021/04/28 09:38:30;;;;;;;6.70;3.42;;;14.80;44.70;;;;;;5027410;28;20041;-68
2021/04/28 09:40:56;;;;;;;5.60;3.72;;;14.80;46.70;;;;;;5027829;28;20048;-68
2021/04/28 09:43:35;;;;;;;5.78;2.80;;;15.00;44.80;;;;;;5028470;28;20037;-68
2021/04/28 09:46:01;;;;;;;4.38;2.75;;;14.90;42.60;;;;;;5029194;28;20041;-68
2021/04/28 09:48:26;;;;;;;5.05;3.33;;;14.60;42.70;;;;;;5029783;28;20116;-68
2021/04/28 09:51:07;;;;;;;5.13;3.17;;;14.70;45.10;;;;;;5028956;28;20036;-68
2021/04/28 09:53:33;;;;;;;6.78;3.35;;;14.80;43.70;;;;;;5029386;28;20143;-68
2021/04/28 09:56:00;;;;;;;7.68;3.13;;;14.90;43.00;;;;;;5021578;28;20046;-68
2021/04/28 09:58:51;;;;;;;3.55;3.08;;;14.90;42.70;;;;;;5021814;28;20033;-68
2021/04/28 10:01:32;;;;;;;5.00;2.92;;;15.00;41.70;;;;;;5023281;28;20087;-68
2021/04/28 10:03:57;;;;;;;4.03;3.63;;;15.10;43.50;;;;;;5022045;28;20124;-68
2021/04/28 10:06:59;;;;;;;6.43;3.40;;;15.20;44.60;;;;;;5024543;28;20060;-68
2021/04/28 10:09:36;;;;;;;8.75;3.63;;;15.10;42.10;;;;;;4944748;29;20044;-68
2021/04/28 10:12:13;;;;;;;5.93;3.40;;;15.30;42.60;;;;;;5009975;28;20049;-68
2021/04/28 10:14:39;;;;;;;9.10;4.05;;;15.10;42.60;;;;;;5019458;28;20492;-68
2021/04/28 10:17:07;;;;;;;5.57;3.53;;;15.20;41.30;;;;;;5021913;28;20111;-68
2021/04/28 10:19:34;;;;;;;6.85;3.78;;;15.40;41.40;;;;;;5021881;28;20048;-68
2021/04/28 10:22:30;;;;;;;9.10;4.60;;;15.60;43.10;;;;;;5023532;28;20120;-68
2021/04/28 10:24:57;;;;;;;8.02;4.68;;;15.80;39.80;;;;;;5018299;28;20128;-68
2021/04/28 10:27:23;;;;;;;7.80;4.25;;;15.90;40.20;;;;;;5024863;28;20037;-68
2021/04/28 10:29:51;;;;;;;7.32;3.95;;;16.10;43.70;;;;;;5021857;28;20195;-67
2021/04/28 10:32:19;;;;;;;4.18;3.67;;;16.20;42.60;;;;;;5026607;28;20033;-67
2021/04/28 10:35:00;;;;;;;10.82;5.18;;;16.40;43.90;;;;;;5023597;28;20037;-67
2021/04/28 10:37:31;;;;;;;9.82;4.55;;;16.50;42.00;;;;;;5023183;28;20099;-67
2021/04/28 10:39:58;;;;;;;6.60;3.55;;;16.60;41.50;;;;;;5023341;28;20052;-67
2021/04/28 10:42:25;;;;;;;7.85;4.20;;;16.60;41.70;;;;;;5019069;28;20048;-67
2021/04/28 10:44:51;;;;;;;9.93;4.57;;;16.40;40.00;;;;;;5023107;28;20525;-67
2021/04/28 10:47:22;;;;;;;5.63;4.07;;;16.40;39.70;;;;;;5027722;28;20033;-67
2021/04/28 10:50:14;;;;;;;9.75;4.78;;;16.40;37.60;;;;;;5027371;28;20069;-67
2021/04/28 10:52:49;;;;;;;7.75;5.25;;;16.40;38.50;;;;;;5027653;28;20045;-67
2021/04/28 10:55:56;;;;;;;6.28;5.03;;;16.50;40.50;;;;;;5026742;28;20044;-67
2021/04/28 10:58:32;;;;;;;;;;;16.60;40.50;;;;;;5028389;28;20443;-67
2021/04/28 11:03:34;;;;;;;7.05;5.20;;;16.60;39.60;;;;;;5018660;28;20037;-67
2021/04/28 11:06:25;;;;;;;8.77;4.60;;;16.60;39.50;;;;;;5018147;28;20161;-67
2021/04/28 11:09:00;;;;;;;9.18;5.13;;;16.70;40.50;;;;;;5018465;28;20552;-67
2021/04/28 11:11:33;;;;;;;8.85;4.40;;;16.50;37.60;;;;;;5022412;28;20384;-67
2021/04/28 11:14:11;;;;;;;8.07;5.78;;;16.50;38.60;;;;;;5022887;28;20316;-67
2021/04/28 11:16:41;;;;;;;10.18;5.20;;;16.40;39.40;;;;;;5019739;28;20029;-67
2021/04/28 11:19:19;;;;;;;18.60;5.18;;;16.40;40.40;;;;;;5020517;28;20046;-67
2021/04/28 11:21:46;;;;;;;7.40;5.25;;;16.40;40.00;;;;;;5023449;28;20034;-67
2021/04/28 11:24:14;;;;;;;18.10;5.90;;;16.60;42.70;;;;;;5024491;28;20057;-67
2021/04/28 11:26:49;;;;;;;9.35;5.55;;;16.90;40.90;;;;;;5018380;28;20116;-67
2021/04/28 11:29:19;;;;;;;8.73;5.20;;;17.10;39.80;;;;;;5020835;28;20045;-67
2021/04/28 11:31:50;;;;;;;6.53;5.70;;;17.10;41.50;;;;;;5019831;28;20044;-67
2021/04/28 11:34:31;;;;;;;8.80;5.15;;;17.30;41.50;;;;;;5025588;28;20499;-67
2021/04/28 11:36:57;;;;;;;15.40;6.07;;;17.10;39.50;;;;;;5025896;28;20423;-67
2021/04/28 11:39:35;;;;;;;9.90;6.22;;;17.10;38.50;;;;;;5027219;28;20041;-67
2021/04/28 11:42:14;;;;;;;6.03;5.30;;;17.00;38.70;;;;;;5022016;28;20041;-67
2021/04/28 11:44:54;;;;;;;7.45;5.57;;;16.80;39.50;;;;;;5021882;28;20047;-67
2021/04/28 11:47:25;;;;;;;5.97;4.85;;;17.00;42.40;;;;;;5018318;28;20072;-67
2021/04/28 11:49:56;;;;;;;9.98;6.07;;;17.20;39.60;;;;;;5020547;28;20045;-67
2021/04/28 11:52:23;;;;;;;10.15;5.68;;;17.00;37.60;;;;;;5018882;28;20042;-67
2021/04/28 11:54:58;;;;;;;11.75;5.97;;;17.10;41.70;;;;;;5019502;28;20377;-67
2021/04/28 11:57:28;;;;;;;9.43;6.18;;;17.20;41.00;;;;;;5020856;28;20041;-67
2021/04/28 12:00:05;;;;;;;14.00;5.65;;;17.30;42.00;;;;;;5021551;28;20044;-67
2021/04/28 12:02:31;;;;;;;6.65;4.97;;;17.40;39.80;;;;;;5016810;28;20500;-69
2021/04/28 12:04:57;;;;;;;10.13;5.97;;;17.60;40.10;;;;;;5017471;28;20053;-67
2021/04/28 12:07:22;;;;;;;8.48;6.10;;;17.70;39.70;;;;;;5018729;28;20038;-67
2021/04/28 12:09:51;;;;;;;7.05;6.18;;;17.70;39.40;;;;;;5025165;28;20057;-67
2021/04/28 12:12:17;;;;;;;9.75;5.57;;;17.70;38.10;;;;;;5024894;28;20456;-69
2021/04/28 12:15:10;;;;;;;11.13;5.90;;;17.70;41.80;;;;;;5026948;28;20025;-69
2021/04/28 12:17:38;;;;;;;7.07;5.72;;;17.70;39.00;;;;;;5027622;28;20510;-69
2021/04/28 12:20:07;;;;;;;6.68;5.95;;;17.80;39.60;;;;;;5027285;28;20171;-69
2021/04/28 12:22:33;;;;;;;8.15;5.70;;;17.80;38.80;;;;;;5027718;28;20415;-67
2021/04/28 12:25:03;;;;;;;8.60;6.13;;;17.80;38.90;;;;;;5027064;28;20097;-67
2021/04/28 12:27:37;;;;;;;12.05;5.70;;;17.60;37.60;;;;;;5017876;28;20700;-66
2021/04/28 12:30:09;;;;;;;9.20;6.25;;;17.60;40.00;;;;;;5022299;28;20100;-66
2021/04/28 12:32:37;;;;;;;9.23;6.70;;;17.70;38.40;;;;;;5022456;28;20408;-66
2021/04/28 12:35:16;;;;;;;8.52;6.35;;;17.70;37.30;;;;;;5026013;28;20132;-66
2021/04/28 12:37:59;;;;;;;7.80;6.22;;;17.50;37.00;;;;;;5028394;28;20095;-66
2021/04/28 12:40:37;;;;;;;11.77;7.45;;;17.40;37.30;;;;;;5028791;28;20037;-66
2021/04/28 12:43:07;;;;;;;8.63;5.43;;;17.30;39.30;;;;;;5021633;28;20550;-67
2021/04/28 12:45:32;;;;;;;11.07;6.80;;;17.40;40.00;;;;;;5020444;28;20033;-67
2021/04/28 12:48:16;;;;;;;16.55;6.72;;;17.50;39.40;;;;;;5022461;28;20042;-67
2021/04/28 12:50:44;;;;;;;14.90;6.05;;;17.40;39.10;;;;;;5022542;28;20045;-67
2021/04/28 12:53:15;;;;;;;11.07;7.10;;;17.50;39.20;;;;;;5024729;28;20045;-67
2021/04/28 12:55:45;;;;;;;9.10;6.78;;;17.30;38.50;;;;;;5026955;28;20038;-67
2021/04/28 12:58:13;;;;;;;9.75;7.30;;;17.50;40.50;;;;;;5025850;28;20606;-67
2021/04/28 13:00:59;;;;;;;7.93;5.85;;;17.70;40.90;;;;;;5028547;28;20045;-67